Time;durP1;ratioP1;P1;durP2;ratioP2;P2;SDS_P1;SDS_P2;PMS_P1;PMS_P2;Temp;Humidity;BMP_temperature;BMP_pressure;BME280_temperature;BME280_humidity;BME280_pressure;Samples;Min_cycle;Max_cycle;Signal;HPM_P1;HPM_P2
2022/01/11 00:01:11;;;;;;;8.73;7.27;;;;;;;8.66;96.23;98880.56;5073030;28;20194;-57
2022/01/11 00:03:40;;;;;;;8.80;7.87;;;;;;;8.68;96.02;98883.16;5073335;28;20222;-56
2022/01/11 00:06:27;;;;;;;10.20;8.30;;;;;;;8.73;96.57;98884.94;5073333;28;20223;-58
2022/01/11 00:09:00;;;;;;;8.40;6.80;;;;;;;8.65;95.50;98889.06;5073065;28;20234;-58
2022/01/11 00:11:27;;;;;;;8.27;7.33;;;;;;;8.52;95.26;98888.88;5063357;28;20629;-58
2022/01/11 00:13:55;;;;;;;9.70;7.30;;;;;;;8.41;95.80;98898.97;5052920;28;20622;-56
2022/01/11 00:16:22;;;;;;;9.87;7.00;;;;;;;8.44;95.99;98896.44;5052873;28;20674;-56
2022/01/11 00:18:49;;;;;;;11.90;6.87;;;;;;;8.47;95.91;98909.31;5052978;28;20206;-57
2022/01/11 00:21:16;;;;;;;9.67;6.90;;;;;;;8.42;95.23;98903.25;5053273;28;20279;-57
2022/01/11 00:26:27;;;;;;;8.70;7.00;;;;;;;8.30;95.21;98909.03;5052986;28;20772;-56
2022/01/11 00:28:55;;;;;;;8.00;6.13;;;;;;;8.29;95.42;98914.16;5052689;28;20263;-57
2022/01/11 00:31:22;;;;;;;9.23;7.53;;;;;;;8.25;95.96;98915.75;5052828;28;20219;-57
2022/01/11 00:33:50;;;;;;;11.47;8.03;;;;;;;8.21;95.91;98924.22;5052731;28;20257;-57
2022/01/11 00:36:17;;;;;;;10.40;7.40;;;;;;;8.13;95.60;98930.06;5052524;28;20718;-57
2022/01/11 00:38:44;;;;;;;12.33;7.53;;;;;;;8.03;96.46;98928.16;5052882;28;20575;-57
2022/01/11 00:41:14;;;;;;;9.07;7.20;;;;;;;8.04;97.02;98929.91;5052439;28;20285;-57
2022/01/11 00:43:43;;;;;;;10.17;7.93;;;;;;;8.00;96.46;98935.78;5052336;28;20219;-56
2022/01/11 00:46:12;;;;;;;9.13;6.97;;;;;;;7.97;96.76;98917.81;5052735;28;20202;-57
2022/01/11 00:48:40;;;;;;;8.83;6.87;;;;;;;8.06;96.58;98936.75;5052367;28;20257;-57
2022/01/11 00:51:09;;;;;;;8.97;7.47;;;;;;;7.89;96.34;98915.13;5052076;28;20197;-57
2022/01/11 00:53:36;;;;;;;10.00;6.97;;;;;;;8.13;96.25;98947.97;5052325;28;20740;-57
2022/01/11 00:56:03;;;;;;;9.93;6.60;;;;;;;8.20;96.07;98960.03;5052100;28;20193;-57
2022/01/11 00:58:30;;;;;;;9.73;7.37;;;;;;;8.18;96.04;98954.03;5052267;28;20689;-57
2022/01/11 01:00:57;;;;;;;9.20;6.73;;;;;;;8.14;95.86;98952.22;5052557;28;20199;-57
2022/01/11 01:03:26;;;;;;;8.40;7.23;;;;;;;8.17;95.57;98959.97;5051618;28;20220;-57
2022/01/11 01:05:53;;;;;;;8.93;6.40;;;;;;;8.10;95.27;98964.09;5052295;28;20634;-57
2022/01/11 01:08:20;;;;;;;7.87;6.30;;;;;;;8.06;95.81;98967.47;5052093;28;20198;-57
2022/01/11 01:10:48;;;;;;;8.07;6.80;;;;;;;8.04;95.86;98961.47;5051941;28;20194;-57
2022/01/11 01:13:18;;;;;;;6.70;6.00;;;;;;;8.04;95.65;98968.28;5051965;28;20289;-57
2022/01/11 01:15:47;;;;;;;10.20;6.53;;;;;;;8.07;96.08;98976.00;5052271;28;20195;-57
2022/01/11 01:18:16;;;;;;;11.87;6.53;;;;;;;8.03;95.73;98984.44;5051960;28;20200;-57
2022/01/11 01:20:45;;;;;;;7.50;6.27;;;;;;;7.86;95.02;98952.56;5051899;28;20203;-57
2022/01/11 01:23:12;;;;;;;8.00;6.40;;;;;;;8.02;95.30;98981.00;5051655;28;20226;-57
2022/01/11 01:25:42;;;;;;;7.87;6.00;;;;;;;7.82;95.23;98984.06;5051811;28;20191;-57
2022/01/11 01:28:09;;;;;;;8.37;6.87;;;;;;;7.79;94.97;98987.41;5051777;28;20234;-57
2022/01/11 01:30:36;;;;;;;6.13;5.43;;;;;;;7.85;95.51;98995.22;5051934;28;20211;-57
2022/01/11 01:33:04;;;;;;;6.13;5.53;;;;;;;7.82;94.84;98981.50;5051744;28;20184;-56
2022/01/11 01:35:37;;;;;;;6.97;5.70;;;;;;;7.61;95.04;98964.03;5051646;28;20981;-56
2022/01/11 01:38:05;;;;;;;8.67;6.17;;;;;;;7.76;94.85;98989.03;5051572;28;20196;-57
2022/01/11 01:40:38;;;;;;;7.40;6.50;;;;;;;7.69;94.65;98991.47;5051390;28;20204;-57
2022/01/11 01:43:05;;;;;;;8.60;6.70;;;;;;;7.64;94.95;98980.31;5051317;28;20312;-57
2022/01/11 01:45:33;;;;;;;7.27;5.87;;;;;;;7.65;94.47;98988.84;5051156;28;20295;-57
2022/01/11 01:48:00;;;;;;;7.30;6.13;;;;;;;7.52;94.50;98992.00;5051206;28;20281;-58
2022/01/11 01:50:27;;;;;;;7.53;6.30;;;;;;;7.56;94.28;98996.31;5051265;28;20571;-57
2022/01/11 01:52:55;;;;;;;8.27;5.93;;;;;;;7.54;94.50;99006.53;5051513;28;20191;-58
2022/01/11 01:55:23;;;;;;;8.90;6.70;;;;;;;7.59;94.91;99002.38;5051061;28;20290;-58
2022/01/11 01:57:51;;;;;;;7.00;6.07;;;;;;;7.57;95.28;99005.72;5051002;28;20635;-58
2022/01/11 02:00:19;;;;;;;7.80;6.87;;;;;;;7.52;95.76;99010.75;5050216;28;20443;-57
2022/01/11 02:02:46;;;;;;;7.20;6.50;;;;;;;7.62;95.48;99009.22;5051045;28;20219;-57
2022/01/11 02:05:13;;;;;;;8.33;6.50;;;;;;;7.57;95.16;99006.59;5051027;28;20200;-56
2022/01/11 02:07:40;;;;;;;7.13;6.07;;;;;;;7.52;95.45;99010.75;5051135;28;20294;-56
2022/01/11 02:10:09;;;;;;;7.60;5.90;;;;;;;7.44;95.46;99008.88;5050653;28;20195;-56
2022/01/11 02:12:38;;;;;;;7.00;6.30;;;;;;;7.31;96.59;99012.84;5050868;28;20282;-56
2022/01/11 02:15:05;;;;;;;7.20;6.27;;;;;;;7.35;96.28;99014.66;5051098;28;20230;-56
2022/01/11 02:17:33;;;;;;;9.33;6.70;;;;;;;7.26;96.39;99017.00;5050744;28;20257;-57
2022/01/11 02:20:00;;;;;;;9.60;6.60;;;;;;;7.27;96.67;99020.44;5050490;28;20203;-57
2022/01/11 02:22:29;;;;;;;9.47;6.37;;;;;;;7.27;96.77;99022.97;5050400;28;20199;-56
2022/01/11 02:24:56;;;;;;;8.23;6.43;;;;;;;7.28;97.27;99029.81;5050739;28;20188;-57
2022/01/11 02:27:23;;;;;;;8.23;6.87;;;;;;;7.32;97.24;99029.91;5050328;28;20318;-56
2022/01/11 02:29:51;;;;;;;9.50;7.30;;;;;;;7.37;96.82;99027.44;5050426;28;20195;-57
2022/01/11 02:32:18;;;;;;;9.10;7.03;;;;;;;7.30;96.75;99034.13;5050517;28;20218;-57
2022/01/11 02:34:45;;;;;;;7.47;6.60;;;;;;;7.26;96.58;99029.78;5050320;28;20289;-57
2022/01/11 02:37:12;;;;;;;9.10;6.67;;;;;;;7.30;96.67;99043.50;5050506;28;20196;-57
2022/01/11 02:39:40;;;;;;;8.77;7.37;;;;;;;7.33;96.35;99035.91;5050587;28;20195;-57
2022/01/11 02:42:08;;;;;;;8.90;6.47;;;;;;;7.31;96.53;99040.94;5050428;28;20222;-56
2022/01/11 02:44:34;;;;;;;8.87;7.00;;;;;;;7.30;96.29;99035.81;5050330;28;20596;-56
2022/01/11 02:47:01;;;;;;;7.53;6.20;;;;;;;7.32;96.17;99042.69;5050234;28;20195;-57
2022/01/11 02:49:28;;;;;;;8.17;6.60;;;;;;;7.27;95.92;99045.97;5050459;28;20218;-57
2022/01/11 02:51:55;;;;;;;8.90;6.17;;;;;;;7.23;95.44;99037.38;5050342;28;20285;-56
2022/01/11 02:54:22;;;;;;;8.03;6.33;;;;;;;7.24;95.09;99040.78;5050177;28;20717;-57
2022/01/11 02:56:51;;;;;;;6.80;6.10;;;;;;;7.20;94.92;99039.84;5050289;28;20207;-56
2022/01/11 02:59:18;;;;;;;8.73;6.13;;;;;;;7.23;95.47;99044.16;5050144;28;20279;-57
2022/01/11 03:01:45;;;;;;;7.37;6.23;;;;;;;7.25;95.28;99039.97;5049954;28;20199;-56
2022/01/11 03:04:12;;;;;;;7.27;5.97;;;;;;;7.26;95.62;99044.25;5050197;28;20302;-57
2022/01/11 03:06:39;;;;;;;6.60;5.87;;;;;;;7.12;95.49;99036.28;5049970;28;20769;-56
2022/01/11 03:09:05;;;;;;;6.97;6.17;;;;;;;7.13;94.99;99043.13;5050148;28;20214;-57
2022/01/11 03:11:33;;;;;;;7.37;5.80;;;;;;;7.08;94.75;99044.72;5050057;28;20199;-57
2022/01/11 03:14:04;;;;;;;6.80;5.13;;;;;;;7.14;95.43;99047.41;5049925;28;20286;-57
2022/01/11 03:16:31;;;;;;;6.20;5.30;;;;;;;7.14;94.82;99048.25;5050052;28;20742;-57
2022/01/11 03:18:58;;;;;;;5.90;5.30;;;;;;;7.18;94.49;99055.97;5050355;28;20632;-57
2022/01/11 03:21:26;;;;;;;6.97;5.80;;;;;;;7.18;94.37;99061.97;5049903;28;20203;-57
2022/01/11 03:23:54;;;;;;;5.83;5.23;;;;;;;7.17;94.41;99057.66;5049978;28;20222;-57
2022/01/11 03:26:20;;;;;;;6.43;5.20;;;;;;;7.06;94.31;99066.78;5050770;28;20203;-57
2022/01/11 03:28:48;;;;;;;6.03;5.43;;;;;;;7.03;94.45;99062.47;5053782;28;20231;-57
2022/01/11 03:31:19;;;;;;;6.60;4.83;;;;;;;7.01;94.62;99070.91;5053915;28;20556;-57
2022/01/11 03:33:46;;;;;;;6.57;5.43;;;;;;;6.96;94.33;99075.06;5053874;28;20195;-56
2022/01/11 03:36:13;;;;;;;9.63;5.07;;;;;;;7.00;94.47;99076.88;5053718;28;20678;-57
2022/01/11 03:38:40;;;;;;;6.13;4.63;;;;;;;6.97;94.38;99076.81;5053583;28;20191;-57
2022/01/11 03:41:07;;;;;;;5.93;5.32;;;;;;;6.95;94.26;99071.63;5052971;28;20471;-57
2022/01/11 03:43:34;;;;;;;4.57;4.17;;;;;;;6.95;94.03;99078.47;5053664;28;20226;-57
2022/01/11 03:46:01;;;;;;;5.67;5.10;;;;;;;6.94;93.89;99080.16;5053491;28;20204;-57
2022/01/11 03:48:29;;;;;;;5.40;4.57;;;;;;;6.94;94.06;99084.38;5053660;28;20198;-56
2022/01/11 03:50:56;;;;;;;6.33;4.50;;;;;;;6.94;94.44;99092.03;5053492;28;20677;-56
2022/01/11 03:53:28;;;;;;;7.43;4.80;;;;;;;6.89;93.95;99093.63;5060261;28;20193;-56
2022/01/11 03:56:11;;;;;;;6.07;5.35;;;;;;;6.89;94.38;99089.41;5072627;28;20437;-57
2022/01/11 03:58:38;;;;;;;5.23;4.73;;;;;;;6.99;94.29;99095.56;5073433;28;20570;-58
2022/01/11 04:01:05;;;;;;;5.83;4.37;;;;;;;6.95;93.38;99094.63;5073179;28;20194;-58
2022/01/11 04:03:33;;;;;;;5.20;4.07;;;;;;;6.91;94.00;99092.84;5073057;28;20214;-57
2022/01/11 04:06:00;;;;;;;5.33;4.40;;;;;;;6.93;94.01;99103.06;5073191;28;20695;-57
2022/01/11 04:08:27;;;;;;;4.60;4.20;;;;;;;6.96;93.97;99103.16;5073262;28;20202;-57
2022/01/11 04:10:54;;;;;;;4.20;3.47;;;;;;;6.95;93.65;99104.00;5073167;28;20566;-58
2022/01/11 04:13:21;;;;;;;4.30;3.90;;;;;;;7.00;93.86;99102.41;5073405;28;20202;-56
2022/01/11 04:15:48;;;;;;;4.47;3.83;;;;;;;7.04;93.78;99114.41;5073262;28;20197;-56
2022/01/11 04:18:15;;;;;;;5.77;4.43;;;;;;;7.01;92.54;99115.19;5073105;28;20662;-57
2022/01/11 04:20:44;;;;;;;5.33;3.93;;;;;;;6.84;92.43;99092.66;5072905;28;20202;-57
2022/01/11 04:23:12;;;;;;;4.57;4.17;;;;;;;7.00;92.91;99116.03;5073026;28;20194;-57
2022/01/11 04:25:40;;;;;;;6.27;5.07;;;;;;;6.98;92.53;99115.13;5073049;28;20226;-58
2022/01/11 04:28:07;;;;;;;5.73;4.97;;;;;;;6.99;93.00;99111.75;5072817;28;20235;-58
2022/01/11 04:30:34;;;;;;;5.43;4.77;;;;;;;6.90;92.77;99120.88;5072904;28;20201;-57
2022/01/11 04:33:02;;;;;;;6.10;5.20;;;;;;;6.80;92.16;99117.25;5072569;28;20198;-57
2022/01/11 04:35:29;;;;;;;5.57;5.03;;;;;;;6.75;93.32;99123.94;5072597;28;20202;-58
2022/01/11 04:37:57;;;;;;;7.40;5.77;;;;;;;6.78;94.39;99123.13;5071765;28;20190;-58
2022/01/11 04:40:24;;;;;;;8.70;5.43;;;;;;;6.82;93.98;99122.38;5072647;28;20641;-58
2022/01/11 04:42:51;;;;;;;7.17;4.83;;;;;;;6.81;94.13;99118.13;5072590;28;20201;-58
2022/01/11 04:45:18;;;;;;;6.40;5.17;;;;;;;6.81;93.91;99126.59;5072403;28;20219;-58
2022/01/11 04:47:47;;;;;;;5.13;4.63;;;;;;;6.83;93.77;99124.13;5072408;28;20207;-58
2022/01/11 04:50:14;;;;;;;6.53;4.73;;;;;;;6.83;92.95;99130.09;5072670;28;20188;-57
2022/01/11 04:52:41;;;;;;;5.57;4.97;;;;;;;6.79;92.78;99117.19;5072264;28;20699;-58
2022/01/11 04:55:10;;;;;;;5.83;5.13;;;;;;;6.86;93.07;99125.06;5072195;28;20286;-57
2022/01/11 04:57:37;;;;;;;5.40;4.13;;;;;;;6.77;92.26;99140.13;5072652;28;20197;-58
2022/01/11 05:00:06;;;;;;;4.63;4.20;;;;;;;6.68;91.61;99137.34;5072023;28;20280;-59
2022/01/11 05:02:33;;;;;;;7.33;5.00;;;;;;;6.51;92.21;99147.13;5072063;28;20199;-58
2022/01/11 05:05:00;;;;;;;5.93;5.20;;;;;;;6.57;92.88;99154.06;5071894;28;20221;-58
2022/01/11 05:07:27;;;;;;;6.37;5.13;;;;;;;6.61;93.37;99158.44;5071913;28;20191;-58
2022/01/11 05:09:53;;;;;;;4.97;4.20;;;;;;;6.64;93.00;99152.56;5072109;28;20199;-57
2022/01/11 05:12:22;;;;;;;7.50;5.00;;;;;;;6.65;92.69;99157.69;5071936;28;20586;-59
2022/01/11 05:14:49;;;;;;;4.93;4.43;;;;;;;6.66;92.54;99161.09;5071749;28;20665;-58
2022/01/11 05:17:16;;;;;;;4.97;4.20;;;;;;;6.65;91.37;99174.72;5072068;28;20203;-58
2022/01/11 05:19:44;;;;;;;5.07;4.50;;;;;;;6.47;91.55;99137.66;5071995;28;20279;-58
2022/01/11 05:22:11;;;;;;;9.23;6.80;;;;;;;6.58;91.54;99177.91;5071629;28;20674;-58
2022/01/11 05:24:37;;;;;;;6.37;5.33;;;;;;;6.58;92.33;99170.25;5071278;28;20233;-59
2022/01/11 05:27:05;;;;;;;5.50;4.77;;;;;;;6.56;92.64;99180.44;5070909;28;20187;-58
2022/01/11 05:29:33;;;;;;;8.73;5.23;;;;;;;6.53;92.55;99181.22;5071586;28;20203;-58
2022/01/11 05:32:02;;;;;;;6.00;5.03;;;;;;;6.56;91.59;99184.66;5071759;28;20203;-58
2022/01/11 05:34:29;;;;;;;5.77;4.93;;;;;;;6.44;92.51;99190.28;5071344;28;20199;-58
2022/01/11 05:36:56;;;;;;;7.40;5.67;;;;;;;6.50;92.39;99198.13;5071560;28;20201;-58
2022/01/11 05:39:23;;;;;;;6.63;4.97;;;;;;;6.57;92.66;99196.59;5071218;28;20668;-58
2022/01/11 05:41:50;;;;;;;6.83;5.77;;;;;;;6.62;92.89;99203.53;5071323;28;20198;-58
2022/01/11 05:44:17;;;;;;;5.53;4.47;;;;;;;6.60;92.22;99204.31;5070978;28;20214;-59
2022/01/11 05:46:46;;;;;;;8.00;5.27;;;;;;;6.48;91.31;99215.09;5070972;28;20590;-58
2022/01/11 05:49:12;;;;;;;7.47;6.10;;;;;;;6.51;91.39;99213.47;5070880;28;20209;-58
2022/01/11 05:51:39;;;;;;;6.73;5.80;;;;;;;6.42;91.95;99222.56;5070911;28;20293;-59
2022/01/11 05:54:06;;;;;;;7.40;5.20;;;;;;;6.49;92.52;99229.56;5070852;28;20203;-58
2022/01/11 05:56:33;;;;;;;7.50;5.40;;;;;;;6.46;92.28;99229.47;5070685;28;20225;-59
2022/01/11 05:59:00;;;;;;;7.20;5.30;;;;;;;6.37;92.00;99219.88;5070971;28;20210;-58
2022/01/11 06:01:28;;;;;;;5.50;4.93;;;;;;;6.52;92.31;99245.81;5071031;28;20589;-58
2022/01/11 06:03:56;;;;;;;5.50;4.73;;;;;;;6.49;91.96;99238.09;5070932;28;20218;-59
2022/01/11 06:06:23;;;;;;;5.60;5.07;;;;;;;6.48;91.51;99246.56;5070785;28;20224;-57
2022/01/11 06:08:50;;;;;;;5.57;4.87;;;;;;;6.48;91.79;99250.81;5070762;28;20224;-58
2022/01/11 06:11:17;;;;;;;11.30;8.03;;;;;;;6.49;91.67;99255.94;5070375;28;20652;-58
2022/01/11 06:13:43;;;;;;;10.37;6.10;;;;;;;6.45;92.67;99261.81;5070779;28;20575;-58
2022/01/11 06:16:10;;;;;;;7.83;6.13;;;;;;;6.47;92.50;99267.81;5070453;28;20206;-58
2022/01/11 06:18:37;;;;;;;8.13;5.97;;;;;;;6.51;92.36;99267.06;5070370;28;20286;-59
2022/01/11 06:21:06;;;;;;;9.57;6.57;;;;;;;6.54;92.04;99267.16;5070308;28;20198;-59
2022/01/11 06:23:32;;;;;;;8.93;7.07;;;;;;;6.54;91.71;99273.94;5070753;28;20197;-58
2022/01/11 06:25:59;;;;;;;7.77;6.43;;;;;;;6.61;91.54;99274.97;5070239;28;20194;-58
2022/01/11 06:28:26;;;;;;;10.10;8.55;;;;;;;6.61;91.38;99270.75;5069257;28;20452;-57
2022/01/11 06:30:53;;;;;;;8.90;7.10;;;;;;;6.62;90.95;99281.81;5070434;28;20273;-58
2022/01/11 06:33:20;;;;;;;8.67;6.67;;;;;;;6.57;90.92;99286.78;5069751;28;20200;-58
2022/01/11 06:35:47;;;;;;;8.33;6.40;;;;;;;6.61;90.47;99288.63;5070135;28;20559;-58
2022/01/11 06:38:16;;;;;;;7.40;6.37;;;;;;;6.62;90.79;99292.88;5069830;28;20198;-58
2022/01/11 06:40:43;;;;;;;9.93;7.33;;;;;;;6.51;90.28;99295.13;5069955;28;20186;-58
2022/01/11 06:43:10;;;;;;;8.73;7.13;;;;;;;6.56;91.01;99307.16;5069739;28;20202;-57
2022/01/11 06:45:38;;;;;;;9.17;7.57;;;;;;;6.40;90.58;99306.72;5067185;28;20229;-57
2022/01/11 06:48:05;;;;;;;10.17;8.30;;;;;;;6.53;91.44;99316.47;5069753;28;20994;-57
2022/01/11 06:50:32;;;;;;;10.07;8.70;;;;;;;6.52;91.45;99312.19;5069971;28;20690;-57
2022/01/11 06:52:59;;;;;;;11.27;8.53;;;;;;;6.49;91.25;99318.88;5070057;28;20202;-57
2022/01/11 06:55:27;;;;;;;12.87;9.50;;;;;;;6.46;91.28;99317.09;5070436;28;20189;-57
2022/01/11 06:57:54;;;;;;;12.20;9.13;;;;;;;6.53;91.61;99328.38;5069458;28;20277;-57
2022/01/11 07:00:22;;;;;;;11.70;9.83;;;;;;;6.40;91.45;99331.38;5069111;28;20685;-57
2022/01/11 07:02:50;;;;;;;11.87;9.07;;;;;;;6.31;92.10;99326.00;5069088;28;20573;-58
2022/01/11 07:05:18;;;;;;;12.80;10.20;;;;;;;6.26;91.83;99335.19;5068421;28;20298;-57
2022/01/11 07:07:45;;;;;;;14.23;10.57;;;;;;;6.29;92.09;99338.69;5059473;28;20281;-57
2022/01/11 07:10:13;;;;;;;12.93;10.27;;;;;;;6.25;92.97;99344.53;5059881;28;20216;-57
2022/01/11 07:12:42;;;;;;;15.67;10.47;;;;;;;6.28;92.67;99341.22;5067086;28;20215;-57
2022/01/11 07:15:10;;;;;;;13.50;10.47;;;;;;;6.24;93.20;99344.47;5069785;28;20334;-57
2022/01/11 07:17:38;;;;;;;13.23;10.27;;;;;;;6.24;92.89;99354.66;5069913;28;20276;-57
2022/01/11 07:20:06;;;;;;;13.30;10.77;;;;;;;6.14;93.12;99353.53;5069822;28;20657;-57
2022/01/11 07:22:33;;;;;;;14.60;10.90;;;;;;;6.19;94.07;99359.63;5069636;28;20676;-58
2022/01/11 07:25:00;;;;;;;15.43;11.30;;;;;;;6.22;93.13;99363.97;5069658;28;20224;-57
2022/01/11 07:27:27;;;;;;;14.13;9.67;;;;;;;6.14;93.34;99368.84;5069310;28;20333;-57
2022/01/11 07:29:55;;;;;;;14.80;10.70;;;;;;;6.12;93.34;99369.63;5069689;28;20197;-57
2022/01/11 07:32:22;;;;;;;16.90;11.87;;;;;;;6.17;93.58;99379.13;5069992;28;20202;-57
2022/01/11 07:34:49;;;;;;;18.83;11.83;;;;;;;6.22;94.33;99386.94;5069969;28;20193;-57
2022/01/11 07:37:16;;;;;;;15.70;12.27;;;;;;;6.31;94.38;99387.22;5069651;28;20563;-57
2022/01/11 07:39:43;;;;;;;19.13;12.90;;;;;;;6.33;93.52;99394.09;5069992;28;20197;-58
2022/01/11 07:42:10;;;;;;;13.77;10.40;;;;;;;6.35;93.47;99397.56;5068830;28;20213;-59
2022/01/11 07:44:37;;;;;;;14.93;11.27;;;;;;;6.38;93.40;99395.09;5068792;28;20239;-58
2022/01/11 07:47:06;;;;;;;15.30;11.07;;;;;;;6.44;93.50;99405.50;5069275;28;20189;-59
2022/01/11 07:49:33;;;;;;;14.03;10.90;;;;;;;6.49;93.97;99406.50;5068943;28;20180;-59
2022/01/11 07:52:00;;;;;;;13.43;10.40;;;;;;;6.53;92.86;99403.25;5066679;28;20687;-59
2022/01/11 07:54:27;;;;;;;13.63;10.93;;;;;;;6.53;93.99;99413.47;5069525;28;20208;-59
2022/01/11 07:56:54;;;;;;;15.97;11.97;;;;;;;6.58;94.02;99415.28;5069218;28;20654;-59
2022/01/11 07:59:21;;;;;;;13.30;9.43;;;;;;;6.56;93.38;99422.03;5069209;28;20191;-59
2022/01/11 08:01:48;;;;;;;11.40;8.40;;;;;;;6.54;92.68;99422.81;5067355;28;20743;-58
2022/01/11 08:04:16;;;;;;;10.17;7.93;;;;;;;6.59;93.30;99417.88;5058993;28;20205;-57
2022/01/11 08:06:43;;;;;;;12.88;11.10;;;;;;;6.63;92.67;99421.38;5049019;28;20832;-56
2022/01/11 08:09:10;;;;;;;11.23;9.77;;;;;;;6.66;93.59;99436.78;5049227;28;20289;-57
2022/01/11 08:11:37;;;;;;;11.43;10.10;;;;;;;6.63;93.02;99442.66;5049604;28;20200;-58
2022/01/11 08:14:04;;;;;;;12.97;10.97;;;;;;;6.63;93.30;99445.22;5071650;28;20270;-57
2022/01/11 08:16:31;;;;;;;12.70;10.83;;;;;;;6.53;92.20;99444.09;5072025;28;20272;-56
2022/01/11 08:18:58;;;;;;;12.70;10.20;;;;;;;6.54;91.88;99448.34;5072608;28;20194;-56
2022/01/11 08:21:26;;;;;;;12.43;10.30;;;;;;;6.56;92.35;99445.88;5072656;28;20190;-57
2022/01/11 08:23:53;;;;;;;12.47;9.30;;;;;;;6.54;91.97;99443.25;5072864;28;20191;-57
2022/01/11 08:26:20;;;;;;;13.10;10.40;;;;;;;6.60;91.75;99454.47;5072592;28;20707;-57
2022/01/11 08:28:47;;;;;;;11.60;10.33;;;;;;;6.53;91.35;99446.63;5072348;28;20267;-58
2022/01/11 08:31:14;;;;;;;12.87;10.80;;;;;;;6.51;90.68;99453.34;5072152;28;20194;-57
2022/01/11 08:33:41;;;;;;;13.80;10.67;;;;;;;6.49;91.49;99447.34;5072156;28;20233;-58
2022/01/11 08:36:08;;;;;;;11.93;9.05;;;;;;;6.47;91.59;99446.44;5072379;28;20445;-57
2022/01/11 08:38:37;;;;;;;11.40;9.23;;;;;;;6.57;91.84;99460.34;5072554;28;20602;-57
2022/01/11 08:41:04;;;;;;;11.83;10.60;;;;;;;6.56;92.62;99458.63;5072327;28;20271;-56
2022/01/11 08:43:30;;;;;;;12.63;10.60;;;;;;;6.53;91.60;99456.84;5072137;28;20197;-57
2022/01/11 08:45:57;;;;;;;10.47;8.63;;;;;;;6.54;91.35;99455.13;5072048;28;20312;-56
2022/01/11 08:48:24;;;;;;;10.03;8.70;;;;;;;6.53;92.69;99453.44;5071536;28;20279;-58
2022/01/11 08:50:53;;;;;;;9.37;7.53;;;;;;;6.60;92.94;99455.34;5072062;28;20204;-58
2022/01/11 08:53:21;;;;;;;9.20;7.07;;;;;;;6.57;93.03;99454.38;5072161;28;20205;-59
2022/01/11 08:55:49;;;;;;;8.70;7.23;;;;;;;6.61;92.60;99458.75;5062137;28;20197;-59
2022/01/11 08:58:16;;;;;;;9.77;7.53;;;;;;;6.60;91.83;99464.66;5064702;28;20199;-59
2022/01/11 09:00:43;;;;;;;13.97;8.83;;;;;;;6.63;92.51;99467.31;5052485;28;20207;-59
2022/01/11 09:03:10;;;;;;;10.73;7.73;;;;;;;6.60;92.17;99462.13;5052295;28;20987;-59
2022/01/11 09:05:37;;;;;;;9.70;7.97;;;;;;;6.62;91.88;99463.06;5051822;28;20226;-58
2022/01/11 09:08:05;;;;;;;9.13;7.70;;;;;;;6.60;91.95;99460.44;5052184;28;20200;-58
2022/01/11 09:10:32;;;;;;;13.17;9.37;;;;;;;6.67;92.51;99467.47;5051038;28;20669;-59
2022/01/11 09:13:00;;;;;;;11.40;9.10;;;;;;;6.71;92.89;99463.31;5050695;28;20207;-58
2022/01/11 09:15:27;;;;;;;12.03;10.03;;;;;;;6.75;91.95;99460.06;5050798;28;20563;-59
2022/01/11 09:17:55;;;;;;;13.40;10.27;;;;;;;6.74;91.58;99468.53;5050606;28;20189;-58
2022/01/11 09:20:22;;;;;;;10.00;8.37;;;;;;;6.81;91.72;99463.63;5050715;28;20183;-58
2022/01/11 09:22:49;;;;;;;12.27;7.43;;;;;;;6.82;91.63;99454.31;5051012;28;20199;-58
2022/01/11 09:25:16;;;;;;;9.20;8.30;;;;;;;6.75;91.46;99454.94;5050420;28;20353;-59
2022/01/11 09:27:43;;;;;;;11.77;8.27;;;;;;;6.61;92.00;99464.75;5059399;28;20229;-59
2022/01/11 09:30:13;;;;;;;10.13;7.87;;;;;;;6.66;91.83;99463.19;5066878;28;20217;-59
2022/01/11 09:32:42;;;;;;;11.60;9.07;;;;;;;6.67;91.50;99464.06;5062452;28;20201;-58
2022/01/11 09:35:12;;;;;;;11.70;9.37;;;;;;;6.70;91.31;99470.13;5062987;28;20191;-59
2022/01/11 09:37:40;;;;;;;12.23;9.20;;;;;;;6.74;91.17;99474.50;5062586;28;20207;-58
2022/01/11 09:40:10;;;;;;;12.53;9.50;;;;;;;6.70;91.30;99474.38;5070949;28;20194;-59
2022/01/11 09:42:38;;;;;;;12.30;8.73;;;;;;;6.77;91.25;99473.72;5071283;28;20220;-58
2022/01/11 09:45:06;;;;;;;8.87;7.83;;;;;;;6.77;91.07;99482.25;5070984;28;20224;-59
2022/01/11 09:47:35;;;;;;;11.90;8.23;;;;;;;6.68;91.86;99481.09;5070908;28;20275;-59
2022/01/11 09:50:02;;;;;;;10.23;8.00;;;;;;;6.63;92.58;99482.63;5071352;28;20198;-59
2022/01/11 09:52:29;;;;;;;10.57;8.43;;;;;;;6.57;92.21;99475.66;5070222;28;20190;-60
2022/01/11 09:54:56;;;;;;;11.07;8.70;;;;;;;6.63;92.13;99477.53;5069128;28;20593;-59
2022/01/11 09:57:24;;;;;;;11.77;8.80;;;;;;;6.60;91.79;99472.31;5070346;28;20209;-58
2022/01/11 09:59:51;;;;;;;10.37;8.37;;;;;;;6.60;92.95;99464.66;5069337;28;20738;-60
2022/01/11 10:02:18;;;;;;;12.40;10.40;;;;;;;6.56;93.14;99468.84;5069732;28;20272;-59
2022/01/11 10:04:46;;;;;;;12.53;10.17;;;;;;;6.56;91.96;99475.63;5065955;28;20665;-59
2022/01/11 10:07:14;;;;;;;14.57;12.20;;;;;;;6.56;91.46;99470.50;5068466;28;20203;-58
2022/01/11 10:09:47;;;;;;;12.97;11.67;;;;;;;6.55;91.42;99474.75;5058086;28;20193;-60
2022/01/11 10:12:14;;;;;;;16.20;13.57;;;;;;;6.60;91.09;99477.44;5061721;28;20197;-58
2022/01/11 10:14:48;;;;;;;12.13;9.53;;;;;;;6.63;91.59;99469.88;5062381;28;20196;-58
2022/01/11 10:17:19;;;;;;;12.10;9.93;;;;;;;6.64;91.74;99484.38;5069601;28;20194;-58
2022/01/11 10:19:49;;;;;;;13.17;10.43;;;;;;;6.63;90.99;99492.84;5069752;28;20200;-58
2022/01/11 10:22:19;;;;;;;13.60;10.20;;;;;;;6.30;90.45;99437.38;5069745;28;20194;-59
2022/01/11 10:24:47;;;;;;;13.70;9.67;;;;;;;6.65;90.81;99494.63;5070071;28;20658;-59
2022/01/11 10:27:17;;;;;;;12.27;8.73;;;;;;;6.63;90.29;99488.63;5069701;28;20706;-58
2022/01/11 10:29:46;;;;;;;9.87;8.67;;;;;;;6.66;90.86;99488.72;5070035;28;20191;-58
2022/01/11 10:32:26;;;;;;;12.17;8.33;;;;;;;6.57;89.98;99479.88;5069991;28;20272;-59
2022/01/11 10:34:55;;;;;;;9.73;7.37;;;;;;;6.47;89.11;99460.88;5070449;28;20221;-59
2022/01/11 10:37:30;;;;;;;11.13;7.23;;;;;;;6.55;89.31;99490.06;5061728;28;20201;-60
2022/01/11 10:40:11;;;;;;;10.90;7.70;;;;;;;6.60;89.38;99497.84;5060238;28;20303;-59
2022/01/11 10:42:45;;;;;;;9.47;7.20;;;;;;;6.48;90.82;99496.63;5049871;28;20692;-59
2022/01/11 10:45:13;;;;;;;13.93;8.93;;;;;;;6.52;91.83;99501.03;5061740;28;20194;-59
2022/01/11 10:47:42;;;;;;;13.07;10.13;;;;;;;6.49;91.36;99498.38;5070097;28;20195;-59
2022/01/11 10:50:13;;;;;;;11.02;8.77;;;;;;;6.52;92.13;99493.38;5069714;28;20939;-59
2022/01/11 10:52:42;;;;;;;11.33;8.93;;;;;;;6.44;89.42;99488.84;5069719;28;20202;-60
2022/01/11 10:55:13;;;;;;;10.17;6.27;;;;;;;6.44;89.42;99494.81;5069929;28;20197;-59
2022/01/11 10:57:41;;;;;;;6.77;6.07;;;;;;;6.42;89.28;99491.38;5070072;28;20743;-60
2022/01/11 11:00:18;;;;;;;6.53;5.93;;;;;;;6.44;88.84;99491.41;5069964;28;20197;-60
2022/01/11 11:02:50;;;;;;;8.53;6.10;;;;;;;6.43;88.62;99498.19;5069812;28;20735;-60
2022/01/11 11:05:24;;;;;;;11.90;6.27;;;;;;;6.26;88.32;99499.31;5069697;28;20197;-58
2022/01/11 11:08:03;;;;;;;11.47;8.50;;;;;;;6.17;89.31;99496.47;5069767;28;20202;-60
2022/01/11 11:10:37;;;;;;;8.50;6.87;;;;;;;6.18;89.85;99503.28;5070207;28;20268;-60
2022/01/11 11:13:07;;;;;;;7.93;7.13;;;;;;;6.25;90.21;99496.72;5069618;28;20177;-60
2022/01/11 11:15:35;;;;;;;10.23;8.77;;;;;;;6.28;90.99;99495.16;5069599;28;20189;-59
2022/01/11 11:18:03;;;;;;;11.07;8.83;;;;;;;6.29;90.92;99501.97;5069563;28;20185;-59
2022/01/11 11:20:33;;;;;;;12.83;9.97;;;;;;;6.24;90.50;99500.94;5069550;28;20197;-59
2022/01/11 11:23:02;;;;;;;12.03;8.37;;;;;;;6.30;91.30;99503.72;5069532;28;20656;-59
2022/01/11 11:25:29;;;;;;;8.67;7.67;;;;;;;6.26;91.30;99499.31;5069373;28;20570;-59
2022/01/11 11:27:56;;;;;;;9.90;7.63;;;;;;;6.29;91.34;99501.13;5069649;28;20238;-60
2022/01/11 11:30:23;;;;;;;10.70;9.00;;;;;;;6.28;90.33;99507.03;5069905;28;20205;-60
2022/01/11 11:32:53;;;;;;;11.67;9.83;;;;;;;6.25;91.65;99505.25;5068534;28;20191;-59
2022/01/11 11:35:20;;;;;;;11.47;9.53;;;;;;;6.29;91.48;99501.13;5053680;28;20199;-60
2022/01/11 11:37:53;;;;;;;13.30;9.50;;;;;;;6.27;91.00;99502.72;5054958;28;20207;-60
2022/01/11 11:40:22;;;;;;;13.67;11.03;;;;;;;6.25;89.89;99505.25;5062279;28;20257;-61
2022/01/11 11:42:53;;;;;;;10.93;9.50;;;;;;;6.25;89.02;99505.25;5053900;28;20616;-60